Topton, NC

12:20 PM EST on December 10, 2016 (GMT -0500)
Noon Day Sun Ridge | | Change Station

Elev 3003 ft 35.26 °N, 83.69 °W | Updated 2 days ago

Partly Cloudy
Partly Cloudy
69 °F
Feels Like 69 °F
N
1
Wind Variable Wind from SSE
Gusts mph

Today
High -- | Low -- °F
--% Chance of Precip.
Yesterday
High -- | Low -- °F
Precip. -- in
Pressure 30.48 in
Visibility 10.0 miles
Clouds Clear
Dew Point 63 °F
Humidity 82%
Rainfall in
Snow Depth Not available.
7:32 AM 5:22 PM
Waxing Gibbous, 85% visible
METAR KRHP 101705Z AUTO 26005KT 10SM CLR 02/M08 A3048 RMK AO2 T00211083
Pressure 30.48 in
Visibility 10.0 miles
Clouds Clear
Dew Point 63 °F
Humidity 82%
Rainfall in
Snow Depth Not available.
7:32 AM 5:22 PM
Waxing Gibbous, 85% visible
METAR KRHP 101705Z AUTO 26005KT 10SM CLR 02/M08 A3048 RMK AO2 T00211083

10-Day Weather Forecast

Almanac

Astronomy

Dec. 10, 2016 Rise Set
Actual Time
Civil Twilight
Nautical Twilight
Astronomical Twilight
Moon
Length of Visible Light
Length of Day
Tomorrow will be .
, % of the Moon is Illuminated

Today's Extremes

State Highs State Lows

Community

WunderPhotos

Upload Photos

1,956,588 photos uploaded!

WunderBlog® & News

Nearby

Air Quality

  Air Quality AQ Index Pollutant
Not available.

Snow Depth

Station Depth Elevation

Earthquake Activity

City Distance Mag. Time & Date
Minimum magnitude displayed is 2.5.

Coastal Water Temperatures

Place Temperature

Stations

Nearby Weather Stations

Station Location Temp. Windchill Dew Point Humidity Wind Precip. Elev Updated Type
                   

Watches & Warnings

There are currently no watches in effect.